Time;durP1;ratioP1;P1;durP2;ratioP2;P2;SDS_P1;SDS_P2;PMS_P1;PMS_P2;Temp;Humidity;BMP_temperature;BMP_pressure;BME280_temperature;BME280_humidity;BME280_pressure;Samples;Min_cycle;Max_cycle;Signal;HPM_P1;HPM_P2
2021/05/12 00:01:24;;;;;;;28.13;18.05;;;12.10;97.60;;;;;;4990729;28;20042;-73
2021/05/12 00:03:50;;;;;;;21.35;16.08;;;12.10;97.60;;;;;;4986270;28;20148;-74
2021/05/12 00:06:15;;;;;;;26.98;17.25;;;12.10;97.50;;;;;;5000555;28;20371;-73
2021/05/12 00:08:41;;;;;;;28.58;18.48;;;12.10;97.50;;;;;;4988406;28;20044;-73
2021/05/12 00:11:08;;;;;;;28.35;18.73;;;12.10;97.50;;;;;;5004453;28;20165;-73
2021/05/12 00:13:33;;;;;;;26.40;18.25;;;12.10;97.50;;;;;;4969154;28;20081;-74
2021/05/12 00:15:59;;;;;;;28.70;18.38;;;12.10;97.50;;;;;;5004076;28;20037;-74
2021/05/12 00:18:28;;;;;;;25.50;17.58;;;12.10;97.50;;;;;;5002765;28;20045;-74
2021/05/12 00:20:54;;;;;;;28.27;17.67;;;12.00;97.50;;;;;;5004084;28;20038;-73
2021/05/12 00:23:26;;;;;;;20.00;14.48;;;12.00;97.50;;;;;;4988297;28;20034;-73
2021/05/12 00:25:52;;;;;;;25.17;17.63;;;12.00;97.50;;;;;;4970250;28;20042;-73
2021/05/12 00:28:20;;;;;;;32.50;18.73;;;12.00;97.50;;;;;;4985913;28;20477;-73
2021/05/12 00:30:46;;;;;;;21.30;17.10;;;12.00;97.50;;;;;;5015314;28;20048;-74
2021/05/12 00:33:13;;;;;;;24.75;16.80;;;12.00;97.50;;;;;;4969929;28;20065;-73
2021/05/12 00:35:39;;;;;;;24.13;16.80;;;12.00;97.50;;;;;;5013989;28;21458;-74
2021/05/12 00:38:05;;;;;;;29.60;18.33;;;11.90;97.40;;;;;;4970907;28;20045;-73
2021/05/12 00:40:31;;;;;;;29.02;17.40;;;12.00;97.50;;;;;;5002618;28;20563;-73
2021/05/12 00:42:57;;;;;;;26.85;17.10;;;11.90;97.50;;;;;;5021239;28;20061;-73
2021/05/12 00:45:23;;;;;;;32.05;17.85;;;11.90;97.60;;;;;;5016012;28;20097;-73
2021/05/12 00:47:49;;;;;;;25.65;16.95;;;11.90;97.50;;;;;;5020935;28;20045;-73
2021/05/12 00:50:22;;;;;;;28.30;17.27;;;11.90;97.60;;;;;;5022192;28;20043;-74
2021/05/12 00:52:47;;;;;;;15.63;13.18;;;11.90;97.60;;;;;;5023463;28;20104;-73
2021/05/12 00:55:14;;;;;;;29.90;18.73;;;11.90;97.60;;;;;;5014339;28;20132;-73
2021/05/12 00:57:40;;;;;;;39.03;20.15;;;11.90;97.60;;;;;;5014155;28;20086;-74
2021/05/12 01:00:09;;;;;;;33.13;18.25;;;11.90;97.60;;;;;;5002204;28;20037;-74
2021/05/12 01:02:35;;;;;;;27.55;19.05;;;11.90;97.70;;;;;;5003737;28;20130;-73
2021/05/12 01:05:01;;;;;;;50.53;22.15;;;11.90;97.70;;;;;;5019211;28;20458;-73
2021/05/12 01:07:31;;;;;;;43.45;20.92;;;11.80;97.70;;;;;;5014026;28;20041;-74
2021/05/12 01:10:00;;;;;;;43.55;21.00;;;11.90;97.80;;;;;;4988108;28;20041;-73
2021/05/12 01:12:26;;;;;;;36.13;20.80;;;11.90;97.80;;;;;;5004252;28;20125;-74
2021/05/12 01:14:52;;;;;;;38.75;21.63;;;11.90;97.80;;;;;;4999455;28;20403;-73
2021/05/12 01:17:18;;;;;;;43.05;22.00;;;11.90;97.80;;;;;;5017426;28;20037;-73
2021/05/12 01:19:44;;;;;;;30.75;19.42;;;11.90;97.80;;;;;;4998989;28;20072;-73
2021/05/12 01:22:10;;;;;;;31.27;19.75;;;11.80;97.70;;;;;;4997019;28;20037;-73
2021/05/12 01:24:37;;;;;;;40.58;20.55;;;11.80;97.70;;;;;;5001176;28;20496;-73
2021/05/12 01:27:23;;;;;;;31.40;20.10;;;11.80;97.70;;;;;;4984665;28;20064;-73
2021/05/12 01:29:49;;;;;;;52.13;23.35;;;11.80;97.70;;;;;;5002977;28;20180;-73
2021/05/12 01:32:16;;;;;;;41.30;21.08;;;11.70;97.70;;;;;;4976913;28;20401;-74
2021/05/12 01:34:51;;;;;;;48.72;22.48;;;11.70;97.70;;;;;;4963845;28;20512;-73
2021/05/12 01:37:17;;;;;;;31.92;20.52;;;11.70;97.80;;;;;;4999174;28;20053;-73
2021/05/12 01:39:43;;;;;;;51.13;24.30;;;11.70;97.80;;;;;;4979933;28;20067;-73
2021/05/12 01:42:09;;;;;;;53.97;23.50;;;11.70;97.90;;;;;;4995583;28;21930;-73
2021/05/12 01:44:35;;;;;;;36.97;22.23;;;11.70;97.90;;;;;;4973277;28;20618;-73
2021/05/12 01:47:01;;;;;;;43.00;24.10;;;11.70;98.00;;;;;;4964201;28;20088;-73
2021/05/12 01:49:33;;;;;;;47.15;24.90;;;11.70;98.00;;;;;;4963565;28;20053;-76
2021/05/12 01:51:59;;;;;;;63.28;27.45;;;11.70;98.10;;;;;;4979004;28;20045;-76
2021/05/12 01:54:25;;;;;;;39.13;24.65;;;11.80;98.10;;;;;;4997448;28;20042;-76
2021/05/12 01:56:51;;;;;;;40.40;24.33;;;11.80;98.10;;;;;;4974400;28;20668;-76
2021/05/12 01:59:17;;;;;;;51.08;26.88;;;11.80;98.10;;;;;;5005108;28;20045;-76
2021/05/12 02:01:42;;;;;;;42.60;26.40;;;11.80;98.10;;;;;;4994525;28;20045;-76
2021/05/12 02:04:09;;;;;;;45.03;27.23;;;11.80;98.10;;;;;;4957683;28;20465;-75
2021/05/12 02:06:35;;;;;;;51.13;27.02;;;11.80;98.10;;;;;;4971485;28;20042;-76
2021/05/12 02:09:04;;;;;;;45.08;27.25;;;11.80;98.10;;;;;;4964576;28;20083;-76
2021/05/12 02:11:30;;;;;;;40.08;25.10;;;11.80;98.10;;;;;;5004217;28;20050;-76
2021/05/12 02:14:00;;;;;;;43.08;25.13;;;11.80;98.20;;;;;;4978302;28;21155;-76
2021/05/12 02:16:25;;;;;;;43.33;25.08;;;11.80;98.20;;;;;;4979988;28;20294;-76
2021/05/12 02:18:52;;;;;;;50.92;26.50;;;11.80;98.20;;;;;;4982406;28;20424;-76
2021/05/12 02:21:18;;;;;;;47.92;26.20;;;11.80;98.20;;;;;;4974009;28;21185;-76
2021/05/12 02:23:44;;;;;;;44.35;26.23;;;11.80;98.20;;;;;;4986035;28;20034;-76
2021/05/12 02:26:10;;;;;;;54.72;26.77;;;11.80;98.20;;;;;;5005386;28;20034;-76
2021/05/12 02:28:35;;;;;;;36.90;23.23;;;11.80;98.20;;;;;;4988884;28;20109;-76
2021/05/12 02:31:01;;;;;;;46.97;27.08;;;11.80;98.30;;;;;;4986410;28;20042;-76
2021/05/12 02:33:27;;;;;;;52.65;27.95;;;11.70;98.30;;;;;;4984824;28;20052;-76
2021/05/12 02:35:53;;;;;;;44.35;27.33;;;11.80;98.30;;;;;;4992167;28;20042;-76
2021/05/12 02:38:19;;;;;;;43.25;26.83;;;11.70;98.20;;;;;;5011064;28;20092;-77
2021/05/12 02:40:45;;;;;;;51.65;26.60;;;11.70;98.20;;;;;;4994528;28;20038;-76
2021/05/12 02:43:11;;;;;;;54.50;26.30;;;11.70;98.20;;;;;;5025049;28;20049;-76
2021/05/12 02:45:37;;;;;;;37.30;24.52;;;11.60;98.10;;;;;;4974449;28;20041;-76
2021/05/12 02:48:04;;;;;;;47.67;26.58;;;11.60;98.20;;;;;;5008086;28;20389;-77
2021/05/12 02:50:33;;;;;;;38.17;23.83;;;11.60;98.20;;;;;;5008999;28;20057;-76
2021/05/12 02:53:00;;;;;;;52.13;27.45;;;11.60;98.20;;;;;;5006969;28;20038;-76
2021/05/12 02:55:27;;;;;;;60.22;28.52;;;11.60;98.30;;;;;;5008450;28;20088;-76
2021/05/12 02:57:55;;;;;;;64.32;28.20;;;11.60;98.30;;;;;;4991569;28;20531;-76
2021/05/12 03:00:23;;;;;;;63.35;28.90;;;11.60;98.30;;;;;;5006573;28;20038;-76
2021/05/12 03:02:49;;;;;;;53.97;28.90;;;11.60;98.30;;;;;;5010015;28;20034;-76
2021/05/12 03:05:16;;;;;;;61.08;29.63;;;11.60;98.40;;;;;;5009779;28;20066;-76
2021/05/12 03:07:43;;;;;;;60.42;27.80;;;11.60;98.40;;;;;;4972940;28;20095;-76
2021/05/12 03:10:13;;;;;;;61.70;28.85;;;11.60;98.40;;;;;;5008253;28;20114;-76
2021/05/12 03:12:39;;;;;;;38.40;24.92;;;11.60;98.50;;;;;;4988829;28;20337;-76
2021/05/12 03:15:10;;;;;;;55.00;28.38;;;11.70;98.50;;;;;;4988589;28;20038;-76
2021/05/12 03:17:36;;;;;;;84.20;29.10;;;11.60;98.50;;;;;;4988509;28;20048;-76
2021/05/12 03:20:02;;;;;;;65.35;28.65;;;11.60;98.50;;;;;;5005502;28;20034;-76
2021/05/12 03:22:29;;;;;;;60.85;27.52;;;11.60;98.50;;;;;;4987172;28;20041;-76
2021/05/12 03:24:54;;;;;;;58.42;29.67;;;11.60;98.50;;;;;;4987546;28;20037;-76
2021/05/12 03:27:20;;;;;;;64.18;28.85;;;11.60;98.50;;;;;;4986838;28;20060;-76
2021/05/12 03:29:46;;;;;;;58.40;29.90;;;11.70;98.50;;;;;;5004914;28;20451;-76
2021/05/12 03:32:12;;;;;;;77.72;29.52;;;11.70;98.50;;;;;;5006154;28;20040;-76
2021/05/12 03:34:38;;;;;;;72.95;30.50;;;11.60;98.50;;;;;;5023016;28;20052;-76
2021/05/12 03:37:04;;;;;;;49.20;27.17;;;11.60;98.40;;;;;;5028123;28;20041;-76
2021/05/12 03:39:30;;;;;;;57.78;26.30;;;11.60;98.40;;;;;;5019728;28;20033;-76
2021/05/12 03:41:56;;;;;;;71.50;28.95;;;11.60;98.40;;;;;;5013058;28;20030;-76
2021/05/12 03:44:22;;;;;;;44.60;25.38;;;11.50;98.40;;;;;;5019395;28;20034;-76
2021/05/12 03:46:48;;;;;;;62.30;29.90;;;11.50;98.30;;;;;;5026088;28;20072;-76
2021/05/12 03:49:15;;;;;;;44.90;26.08;;;11.50;98.40;;;;;;4996868;28;20113;-76
2021/05/12 03:51:40;;;;;;;74.07;30.55;;;11.40;98.30;;;;;;5000251;28;20460;-76
2021/05/12 03:54:06;;;;;;;84.05;30.67;;;11.40;98.30;;;;;;4989278;28;20084;-75
2021/05/12 03:56:32;;;;;;;76.15;28.73;;;11.40;98.30;;;;;;5028529;28;20052;-75
2021/05/12 03:58:58;;;;;;;82.78;29.50;;;11.30;98.30;;;;;;5016631;28;20049;-75
2021/05/12 04:01:24;;;;;;;51.83;26.55;;;11.20;98.20;;;;;;5025079;28;20046;-76
2021/05/12 04:03:50;;;;;;;84.70;30.40;;;11.20;98.30;;;;;;5011703;28;20044;-76
2021/05/12 04:06:21;;;;;;;66.00;29.48;;;11.20;98.30;;;;;;5027524;28;20041;-76
2021/05/12 04:08:47;;;;;;;105.63;32.22;;;11.20;98.30;;;;;;5026231;28;20038;-76
2021/05/12 04:11:13;;;;;;;95.57;32.22;;;11.10;98.30;;;;;;4995306;28;20060;-76
2021/05/12 04:13:39;;;;;;;117.97;32.33;;;11.10;98.30;;;;;;4995472;28;20033;-76
2021/05/12 04:16:05;;;;;;;104.55;34.92;;;11.20;98.40;;;;;;5020079;28;20440;-76
2021/05/12 04:18:31;;;;;;;85.47;33.35;;;11.10;98.50;;;;;;5013003;28;20144;-76
2021/05/12 04:21:00;;;;;;;115.43;36.38;;;11.10;98.50;;;;;;5014983;28;20548;-76
2021/05/12 04:23:26;;;;;;;122.15;37.17;;;11.20;98.60;;;;;;5024401;28;20095;-75
2021/05/12 04:25:52;;;;;;;95.63;34.97;;;11.30;98.70;;;;;;4997992;28;20456;-76
2021/05/12 04:28:19;;;;;;;88.68;36.00;;;11.30;98.80;;;;;;5005539;28;20485;-76
2021/05/12 04:30:45;;;;;;;103.10;36.22;;;11.40;98.80;;;;;;5006234;28;20460;-76
2021/05/12 04:33:10;;;;;;;97.93;35.83;;;11.40;98.80;;;;;;4987151;28;20038;-76
2021/05/12 04:35:36;;;;;;;84.82;33.83;;;11.40;98.80;;;;;;4963254;28;20053;-76
2021/05/12 04:38:02;;;;;;;62.92;30.90;;;11.40;98.90;;;;;;5002321;28;20050;-76
2021/05/12 04:40:28;;;;;;;69.03;31.55;;;11.50;98.90;;;;;;5005958;28;20588;-76
2021/05/12 04:42:54;;;;;;;49.72;29.08;;;11.50;98.90;;;;;;5013008;28;20041;-76
2021/05/12 04:45:20;;;;;;;70.15;33.95;;;11.50;98.90;;;;;;5013690;28;20046;-76
2021/05/12 04:48:00;;;;;;;81.50;33.97;;;11.50;99.00;;;;;;4994371;28;20038;-76
2021/05/12 04:50:32;;;;;;;66.95;31.23;;;11.60;99.00;;;;;;5015838;28;20085;-75
2021/05/12 04:52:59;;;;;;;74.60;31.75;;;11.60;99.00;;;;;;5016721;28;20433;-76
2021/05/12 04:55:25;;;;;;;62.40;31.88;;;11.60;99.00;;;;;;5006134;28;20106;-76
2021/05/12 04:57:51;;;;;;;58.67;29.38;;;11.60;99.00;;;;;;4993506;28;20588;-75
2021/05/12 05:00:20;;;;;;;118.43;34.78;;;11.70;99.00;;;;;;5005286;28;20132;-76
2021/05/12 05:02:46;;;;;;;55.50;30.85;;;11.60;99.00;;;;;;5018707;28;20041;-76
2021/05/12 05:05:14;;;;;;;63.75;30.90;;;11.60;99.00;;;;;;4988245;28;20448;-75
2021/05/12 05:07:40;;;;;;;62.58;30.75;;;11.70;99.00;;;;;;4987461;28;20042;-76
2021/05/12 05:10:07;;;;;;;60.65;30.08;;;11.70;99.00;;;;;;5002921;28;20034;-76
2021/05/12 05:12:33;;;;;;;44.25;27.30;;;11.70;99.40;;;;;;4987048;28;20037;-75
2021/05/12 05:14:59;;;;;;;56.42;29.33;;;11.70;99.00;;;;;;4987319;28;20600;-75
2021/05/12 05:17:28;;;;;;;46.78;28.58;;;11.80;99.00;;;;;;5005703;28;20040;-76
2021/05/12 05:19:54;;;;;;;56.47;29.05;;;11.80;99.00;;;;;;4985596;28;20117;-75
2021/05/12 05:22:21;;;;;;;46.13;28.98;;;11.80;98.90;;;;;;5005382;28;20040;-76
2021/05/12 05:24:50;;;;;;;33.83;24.15;;;11.90;98.90;;;;;;4985554;28;20048;-76
2021/05/12 05:27:16;;;;;;;38.63;25.75;;;11.90;98.90;;;;;;5004030;28;20044;-75
2021/05/12 05:29:42;;;;;;;35.80;24.08;;;11.90;98.80;;;;;;4982509;28;20046;-75
2021/05/12 05:32:08;;;;;;;40.10;27.40;;;12.00;98.70;;;;;;4956622;28;20073;-75
2021/05/12 05:34:34;;;;;;;44.38;27.17;;;12.00;98.60;;;;;;5004538;28;20077;-73
2021/05/12 05:37:00;;;;;;;37.92;25.92;;;12.00;98.70;;;;;;5004014;28;20080;-73
2021/05/12 05:39:35;;;;;;;35.42;24.40;;;12.10;98.70;;;;;;4954882;28;20132;-73
2021/05/12 05:42:09;;;;;;;32.67;21.63;;;12.10;98.60;;;;;;4984693;28;20050;-73
2021/05/12 05:44:35;;;;;;;32.33;22.80;;;12.10;98.50;;;;;;5002665;28;20044;-74
2021/05/12 05:47:02;;;;;;;30.67;21.77;;;12.20;98.50;;;;;;5016091;28;20041;-74
2021/05/12 05:49:29;;;;;;;28.73;20.88;;;12.20;98.40;;;;;;4989107;28;20053;-73
2021/05/12 05:51:55;;;;;;;26.17;17.50;;;12.20;98.20;;;;;;4984224;28;20069;-72
2021/05/12 05:54:21;;;;;;;22.55;15.35;;;12.30;98.00;;;;;;5004746;28;20400;-70
2021/05/12 05:56:48;;;;;;;20.45;14.80;;;12.30;97.60;;;;;;5003702;28;20388;-72
2021/05/12 05:59:15;;;;;;;19.90;14.93;;;12.30;97.20;;;;;;4979232;28;20127;-72
2021/05/12 06:01:44;;;;;;;17.08;13.32;;;12.30;97.00;;;;;;4967075;28;20628;-72
2021/05/12 06:04:09;;;;;;;16.73;12.38;;;12.40;96.70;;;;;;5018135;28;20053;-72
2021/05/12 06:06:35;;;;;;;14.70;10.27;;;12.30;96.50;;;;;;4968307;28;20084;-72
2021/05/12 06:09:02;;;;;;;16.60;11.02;;;12.40;96.10;;;;;;5003496;28;20038;-71
2021/05/12 06:11:31;;;;;;;15.68;10.80;;;12.40;95.80;;;;;;4985416;28;20045;-72
2021/05/12 06:14:00;;;;;;;14.07;10.35;;;12.40;95.80;;;;;;5001338;28;20042;-72
2021/05/12 06:16:26;;;;;;;13.15;9.30;;;12.50;95.50;;;;;;4984548;28;20065;-74
2021/05/12 06:18:55;;;;;;;15.38;8.80;;;12.50;95.00;;;;;;4997206;28;20100;-74
2021/05/12 06:21:21;;;;;;;12.98;7.93;;;12.50;94.50;;;;;;4984788;28;20255;-75
2021/05/12 06:23:50;;;;;;;11.77;7.25;;;12.50;94.10;;;;;;4986065;28;20034;-73
2021/05/12 06:26:20;;;;;;;11.68;6.57;;;12.50;93.90;;;;;;4983433;28;20042;-74
2021/05/12 06:28:46;;;;;;;14.93;7.30;;;12.50;93.10;;;;;;4988289;28;20058;-74
2021/05/12 06:31:13;;;;;;;12.98;6.68;;;12.60;93.20;;;;;;4986737;28;20497;-74
2021/05/12 06:33:43;;;;;;;10.30;5.80;;;12.60;93.20;;;;;;4985277;28;20124;-77
2021/05/12 06:36:11;;;;;;;11.77;6.68;;;12.70;93.10;;;;;;4985671;28;20073;-80
2021/05/12 06:38:37;;;;;;;12.38;7.18;;;12.70;92.80;;;;;;4986427;28;20042;-80
2021/05/12 06:41:04;;;;;;;14.98;6.93;;;12.80;92.90;;;;;;4983010;28;20042;-79
2021/05/12 06:43:30;;;;;;;10.80;6.68;;;12.90;93.10;;;;;;5004523;28;20392;-80
2021/05/12 06:45:56;;;;;;;10.55;5.63;;;13.00;92.80;;;;;;4972369;28;20034;-79
2021/05/12 06:48:23;;;;;;;13.20;6.22;;;13.10;91.60;;;;;;4965168;28;20136;-79
2021/05/12 06:50:49;;;;;;;11.68;6.00;;;13.20;91.60;;;;;;5006833;28;20323;-79
2021/05/12 06:53:25;;;;;;;11.13;5.68;;;13.30;91.90;;;;;;5003392;28;20037;-78
2021/05/12 06:55:52;;;;;;;11.50;6.15;;;13.40;90.60;;;;;;5003456;28;20048;-79
2021/05/12 06:58:18;;;;;;;12.25;5.75;;;13.40;91.10;;;;;;5002132;28;20100;-79
2021/05/12 07:00:44;;;;;;;10.90;5.97;;;13.50;91.20;;;;;;4984315;28;20433;-79
2021/05/12 07:03:09;;;;;;;13.05;5.80;;;13.50;90.70;;;;;;4989302;28;20128;-78
2021/05/12 07:05:35;;;;;;;11.65;6.57;;;13.60;89.60;;;;;;4984325;28;20042;-79
2021/05/12 07:08:01;;;;;;;11.77;5.25;;;13.60;90.40;;;;;;4987499;28;20058;-79
2021/05/12 07:10:30;;;;;;;11.98;5.47;;;13.80;89.30;;;;;;4983651;28;20042;-79
2021/05/12 07:12:57;;;;;;;12.18;5.30;;;13.80;88.20;;;;;;4988279;28;20120;-80
2021/05/12 07:15:42;;;;;;;11.00;4.13;;;13.90;89.10;;;;;;4990076;28;20370;-77
2021/05/12 07:18:11;;;;;;;10.60;4.60;;;14.00;88.10;;;;;;5018501;28;20042;-79
2021/05/12 07:20:38;;;;;;;9.32;4.25;;;14.10;86.20;;;;;;4991271;28;20046;-79
2021/05/12 07:23:09;;;;;;;7.82;3.95;;;14.10;86.20;;;;;;4985915;28;20050;-79
2021/05/12 07:25:37;;;;;;;8.13;4.10;;;14.20;85.30;;;;;;4991563;28;20050;-78
2021/05/12 07:28:03;;;;;;;8.57;3.90;;;14.30;84.20;;;;;;4972429;28;20125;-79
2021/05/12 07:30:29;;;;;;;7.53;3.28;;;14.40;85.20;;;;;;5014306;28;20091;-79
2021/05/12 07:32:55;;;;;;;8.45;3.47;;;14.50;85.20;;;;;;4989115;28;20572;-78
2021/05/12 07:35:22;;;;;;;7.80;3.65;;;14.60;84.10;;;;;;5010738;28;20038;-79
2021/05/12 07:38:07;;;;;;;6.88;3.53;;;14.50;81.50;;;;;;4979159;28;20544;-78
2021/05/12 07:40:35;;;;;;;7.32;3.45;;;14.40;83.20;;;;;;5004330;28;20057;-78
2021/05/12 07:43:11;;;;;;;7.72;4.05;;;14.50;84.10;;;;;;4988741;28;20053;-78
2021/05/12 07:45:40;;;;;;;8.68;3.97;;;14.60;82.90;;;;;;4972223;28;20034;-79
2021/05/12 07:48:08;;;;;;;11.35;4.65;;;14.70;83.20;;;;;;4985621;28;20124;-79
2021/05/12 07:50:36;;;;;;;7.18;3.50;;;14.80;84.10;;;;;;4988664;28;20034;-79
2021/05/12 07:53:04;;;;;;;8.45;3.20;;;14.90;82.90;;;;;;4988775;28;20045;-78
2021/05/12 07:55:46;;;;;;;8.85;3.83;;;15.00;80.70;;;;;;5006745;28;20045;-79
2021/05/12 07:58:16;;;;;;;7.78;3.67;;;15.10;81.90;;;;;;4991378;28;20060;-79
2021/05/12 08:00:44;;;;;;;9.27;3.80;;;15.20;80.70;;;;;;4987369;28;20397;-79
2021/05/12 08:03:10;;;;;;;8.68;3.47;;;15.30;81.60;;;;;;4987126;28;20045;-78
2021/05/12 08:05:37;;;;;;;7.07;2.88;;;15.30;80.60;;;;;;4984339;28;20131;-78
2021/05/12 08:08:23;;;;;;;7.72;2.72;;;15.50;80.50;;;;;;4979046;28;20095;-78
2021/05/12 08:10:55;;;;;;;5.00;2.42;;;15.60;79.80;;;;;;4983406;28;20038;-79
2021/05/12 08:13:21;;;;;;;7.97;2.30;;;15.70;79.60;;;;;;4989726;28;20036;-79
2021/05/12 08:16:06;;;;;;;8.90;2.42;;;15.80;76.60;;;;;;4963150;28;20045;-79
2021/05/12 08:18:32;;;;;;;7.03;2.78;;;15.80;77.30;;;;;;5008194;28;20042;-80
2021/05/12 08:21:00;;;;;;;6.80;3.00;;;15.90;79.30;;;;;;4984949;28;20132;-78
2021/05/12 08:23:26;;;;;;;6.70;2.72;;;16.00;77.20;;;;;;4990729;28;20085;-79
2021/05/12 08:25:54;;;;;;;9.30;2.58;;;16.10;75.10;;;;;;4958708;28;20034;-77
2021/05/12 08:28:20;;;;;;;6.05;2.35;;;16.00;74.80;;;;;;4988161;28;20405;-78
2021/05/12 08:30:46;;;;;;;7.05;2.42;;;16.00;74.00;;;;;;4989368;28;20045;-79
2021/05/12 08:33:14;;;;;;;8.15;2.60;;;16.10;76.40;;;;;;4987851;28;20505;-78
2021/05/12 08:36:00;;;;;;;7.28;2.35;;;16.20;77.50;;;;;;4977678;28;20049;-80
2021/05/12 08:38:37;;;;;;;6.93;1.75;;;16.30;78.50;;;;;;4975259;28;20045;-79
2021/05/12 08:41:03;;;;;;;5.43;2.15;;;16.50;77.80;;;;;;4987767;28;20038;-78
2021/05/12 08:43:30;;;;;;;7.10;1.80;;;16.70;75.70;;;;;;4982520;28;20038;-79
2021/05/12 08:46:00;;;;;;;7.63;1.83;;;16.80;74.80;;;;;;4988034;28;20116;-79
2021/05/12 08:48:29;;;;;;;4.63;1.97;;;16.80;73.20;;;;;;5001156;28;20038;-79
2021/05/12 08:51:00;;;;;;;9.10;2.10;;;16.90;72.60;;;;;;5009254;28;20132;-80
2021/05/12 08:53:26;;;;;;;6.28;1.30;;;16.90;74.80;;;;;;4999776;28;20042;-79
2021/05/12 08:55:52;;;;;;;7.00;1.67;;;17.00;73.20;;;;;;4998742;28;20181;-80
2021/05/12 08:58:22;;;;;;;5.38;1.20;;;17.10;74.30;;;;;;4972228;28;20080;-79
2021/05/12 09:00:48;;;;;;;5.05;1.10;;;17.10;70.90;;;;;;4966697;28;20070;-80
2021/05/12 09:03:14;;;;;;;6.70;1.00;;;17.10;69.00;;;;;;4992133;28;20045;-79
2021/05/12 09:05:41;;;;;;;6.47;1.25;;;17.10;70.00;;;;;;5021085;28;20052;-80
2021/05/12 09:08:07;;;;;;;6.10;1.13;;;17.10;69.10;;;;;;4985528;28;20547;-79
2021/05/12 09:10:33;;;;;;;5.28;1.00;;;17.10;69.00;;;;;;4987277;28;20042;-79
2021/05/12 09:13:00;;;;;;;5.15;1.45;;;17.20;69.80;;;;;;5021791;28;20104;-79
2021/05/12 09:15:27;;;;;;;6.18;1.50;;;17.30;72.10;;;;;;5005098;28;20042;-80
2021/05/12 09:18:01;;;;;;;9.50;1.65;;;17.40;71.50;;;;;;5006639;28;20095;-80
2021/05/12 09:20:37;;;;;;;5.28;1.10;;;17.50;71.60;;;;;;5000593;28;20034;-80
2021/05/12 09:23:09;;;;;;;5.60;1.00;;;17.70;68.80;;;;;;5004261;28;20049;-80
2021/05/12 09:25:38;;;;;;;8.23;1.08;;;17.70;65.40;;;;;;5005706;28;20034;-73
2021/05/12 09:28:14;;;;;;;7.15;1.20;;;17.70;66.80;;;;;;5005852;28;20042;-74
2021/05/12 09:30:48;;;;;;;5.00;1.30;;;17.80;71.80;;;;;;5021898;28;20067;-74
2021/05/12 09:33:32;;;;;;;7.68;1.55;;;17.90;66.60;;;;;;5005050;28;20041;-73
2021/05/12 09:36:01;;;;;;;6.82;1.35;;;18.00;66.30;;;;;;5032811;28;20102;-74
2021/05/12 09:38:29;;;;;;;5.65;1.00;;;18.00;67.10;;;;;;5012405;28;20040;-74
2021/05/12 09:41:14;;;;;;;7.07;1.38;;;17.90;66.10;;;;;;5006098;28;20029;-74
2021/05/12 09:43:50;;;;;;;5.00;1.02;;;18.00;67.20;;;;;;5028983;28;20172;-74
2021/05/12 09:46:30;;;;;;;7.20;1.65;;;17.90;65.40;;;;;;5006461;28;20437;-74
2021/05/12 09:48:59;;;;;;;;;;;18.00;65.30;;;;;;5031606;28;20086;-74
2021/05/12 09:51:26;;;;;;;6.57;1.15;;;18.00;66.60;;;;;;5036332;28;19924;-74
2021/05/12 09:54:12;;;;;;;4.53;1.25;;;18.10;64.10;;;;;;4985359;28;20379;-74
2021/05/12 09:56:49;;;;;;;7.80;1.52;;;18.20;65.00;;;;;;5032886;28;20033;-75
2021/05/12 09:59:28;;;;;;;6.20;1.42;;;18.20;62.40;;;;;;5037212;28;20048;-74
2021/05/12 10:01:59;;;;;;;5.78;1.10;;;18.20;63.50;;;;;;5032910;28;20116;-74
2021/05/12 10:04:39;;;;;;;7.40;1.40;;;18.40;67.30;;;;;;5007982;28;20091;-75
2021/05/12 10:07:20;;;;;;;8.82;1.63;;;18.60;67.50;;;;;;5034141;28;20048;-74
2021/05/12 10:09:54;;;;;;;7.30;1.80;;;18.70;66.30;;;;;;5004318;28;20469;-75
2021/05/12 10:12:22;;;;;;;5.57;1.10;;;18.80;64.20;;;;;;5034753;28;20037;-75
2021/05/12 10:14:52;;;;;;;9.68;1.45;;;18.90;65.40;;;;;;5010105;28;20076;-74
2021/05/12 10:17:22;;;;;;;8.48;2.03;;;19.00;63.70;;;;;;5037642;28;20072;-75
2021/05/12 10:19:48;;;;;;;5.88;1.40;;;19.00;65.40;;;;;;5009659;28;20094;-75
2021/05/12 10:22:16;;;;;;;6.25;1.42;;;19.20;65.90;;;;;;5013813;28;20084;-74
2021/05/12 10:24:44;;;;;;;4.35;1.00;;;19.30;64.30;;;;;;5002034;28;20042;-75
2021/05/12 10:27:13;;;;;;;5.15;0.77;;;19.50;62.50;;;;;;5000882;28;20037;-75
2021/05/12 10:29:42;;;;;;;6.45;1.27;;;19.60;63.00;;;;;;5011426;28;20309;-74
2021/05/12 10:32:17;;;;;;;6.35;2.00;;;19.70;61.80;;;;;;5000106;28;20424;-75
2021/05/12 10:34:43;;;;;;;8.27;1.48;;;19.40;60.00;;;;;;4987806;28;20038;-75
2021/05/12 10:37:36;;;;;;;9.07;1.35;;;19.40;60.80;;;;;;4985871;28;20034;-75
2021/05/12 10:40:22;;;;;;;8.63;1.45;;;19.40;62.30;;;;;;4983669;28;20046;-74
2021/05/12 10:45:42;;;;;;;7.82;2.15;;;19.10;64.20;;;;;;5007284;28;20091;-75
2021/05/12 10:48:33;;;;;;;6.57;1.52;;;18.90;61.10;;;;;;5003961;28;20543;-75
2021/05/12 10:51:01;;;;;;;6.95;1.30;;;18.60;61.20;;;;;;4985395;28;20077;-75
2021/05/12 10:53:33;;;;;;;6.47;1.30;;;18.30;60.40;;;;;;5009214;28;20041;-75
2021/05/12 10:55:59;;;;;;;6.97;1.83;;;18.10;62.70;;;;;;5006213;28;20046;-75
2021/05/12 10:58:27;;;;;;;7.85;1.23;;;17.90;64.20;;;;;;4991333;28;20125;-75
2021/05/12 11:01:00;;;;;;;9.15;1.42;;;17.80;64.30;;;;;;5009289;28;20067;-76
2021/05/12 11:03:46;;;;;;;9.02;1.70;;;17.80;64.60;;;;;;5026727;28;20030;-74
2021/05/12 11:06:12;;;;;;;6.82;1.33;;;17.70;63.60;;;;;;4990260;28;20527;-75
2021/05/12 11:09:00;;;;;;;9.40;1.40;;;17.50;62.50;;;;;;4988897;28;20042;-75
2021/05/12 11:11:26;;;;;;;5.07;1.35;;;17.70;62.30;;;;;;5002986;28;20440;-74
2021/05/12 11:14:18;;;;;;;9.60;1.75;;;17.90;64.60;;;;;;4990922;28;20038;-74
2021/05/12 11:17:00;;;;;;;6.60;1.52;;;18.10;66.20;;;;;;4986218;28;20080;-75
2021/05/12 11:19:52;;;;;;;5.57;1.23;;;18.00;61.90;;;;;;4989077;28;20385;-75
2021/05/12 11:25:35;;;;;;;10.33;1.80;;;17.80;63.80;;;;;;5004975;28;20492;-75
2021/05/12 11:33:22;;;;;;;9.30;1.45;;;17.70;64.70;;;;;;5004777;28;20038;-82
2021/05/12 11:35:53;;;;;;;8.07;1.20;;;17.80;60.80;;;;;;4990789;28;20053;-81
2021/05/12 11:38:19;;;;;;;6.43;1.42;;;17.80;62.10;;;;;;4990188;28;20042;-81
2021/05/12 11:41:05;;;;;;;7.03;1.52;;;18.10;63.60;;;;;;5003516;28;20509;-81
2021/05/12 11:43:43;;;;;;;8.07;1.48;;;18.60;62.00;;;;;;5020311;28;20100;-81
2021/05/12 11:46:18;;;;;;;7.30;1.45;;;19.00;58.90;;;;;;4986929;28;20302;-81
2021/05/12 11:48:53;;;;;;;7.40;1.35;;;18.90;58.40;;;;;;5005532;28;20512;-80
2021/05/12 11:51:29;;;;;;;7.75;1.35;;;18.60;59.00;;;;;;4989485;28;20048;-81
2021/05/12 11:53:56;;;;;;;6.47;1.45;;;18.30;61.10;;;;;;4987204;28;20096;-80
2021/05/12 11:56:23;;;;;;;8.90;1.65;;;18.20;60.60;;;;;;5002636;28;20046;-81
2021/05/12 11:59:02;;;;;;;10.52;1.70;;;17.90;60.40;;;;;;4999944;28;20147;-81
2021/05/12 12:01:37;;;;;;;8.15;1.40;;;17.80;61.80;;;;;;4968957;28;20101;-80
2021/05/12 12:06:48;;;;;;;5.95;1.10;;;17.70;62.30;;;;;;5004956;28;20331;-81
2021/05/12 12:09:16;;;;;;;5.38;0.98;;;17.90;59.80;;;;;;5002695;28;20042;-81
2021/05/12 12:11:43;;;;;;;7.13;1.38;;;18.10;59.70;;;;;;5019347;28;20073;-80
2021/05/12 12:14:10;;;;;;;7.55;1.60;;;18.10;58.60;;;;;;4991968;28;20100;-80
2021/05/12 12:16:39;;;;;;;5.72;1.13;;;18.10;58.30;;;;;;4970473;28;20550;-81
2021/05/12 12:19:13;;;;;;;10.27;1.67;;;18.10;59.10;;;;;;5006333;28;20092;-81
2021/05/12 12:21:41;;;;;;;6.60;1.20;;;18.00;60.60;;;;;;5002553;28;20070;-81
2021/05/12 12:24:21;;;;;;;6.53;1.52;;;18.30;60.80;;;;;;5008216;28;20044;-78
2021/05/12 12:26:53;;;;;;;7.25;1.35;;;18.50;57.40;;;;;;5004932;28;20049;-75
2021/05/12 12:29:20;;;;;;;9.10;1.65;;;18.70;58.60;;;;;;5014483;28;20144;-75
2021/05/12 12:31:49;;;;;;;6.43;1.42;;;18.60;56.80;;;;;;5017462;28;20040;-75
2021/05/12 12:34:51;;;;;;;8.23;1.33;;;18.40;55.70;;;;;;5029491;28;20037;-74
2021/05/12 12:37:18;;;;;;;5.35;1.10;;;18.40;55.80;;;;;;5019125;28;20048;-75
2021/05/12 12:40:07;;;;;;;8.85;1.40;;;18.60;56.20;;;;;;5010833;28;20068;-74
2021/05/12 12:42:43;;;;;;;7.25;1.38;;;18.80;56.60;;;;;;5024867;28;20049;-75
2021/05/12 12:45:29;;;;;;;5.88;1.25;;;18.90;57.40;;;;;;5021585;28;20041;-75
2021/05/12 12:48:07;;;;;;;5.72;1.42;;;19.20;57.60;;;;;;5022673;28;20493;-75
2021/05/12 12:50:40;;;;;;;5.35;1.45;;;19.20;51.80;;;;;;5007285;28;20128;-75
2021/05/12 12:53:07;;;;;;;6.85;1.25;;;19.10;54.40;;;;;;5011583;28;20037;-75
2021/05/12 12:55:36;;;;;;;7.00;1.30;;;19.10;54.20;;;;;;4997475;28;20048;-76
2021/05/12 12:58:06;;;;;;;8.18;1.38;;;19.10;53.90;;;;;;5015906;28;20049;-76
2021/05/12 13:00:35;;;;;;;6.75;1.58;;;19.20;55.30;;;;;;5012342;28;20044;-76